Time;durP1;ratioP1;P1;durP2;ratioP2;P2;SDS_P1;SDS_P2;PMS_P1;PMS_P2;Temp;Humidity;BMP_temperature;BMP_pressure;BME280_temperature;BME280_humidity;BME280_pressure;Samples;Min_cycle;Max_cycle;Signal;HPM_P1;HPM_P2
2022/07/04 00:00:50;;;;;;;5.23;2.23;;;21.00;99.90;;;;;;5076631;28;20668;-70
2022/07/04 00:03:16;;;;;;;2.40;2.30;;;21.10;99.90;;;;;;5078266;28;20657;-70
2022/07/04 00:05:43;;;;;;;3.30;3.00;;;21.00;99.90;;;;;;5060929;28;20599;-70
2022/07/04 00:08:09;;;;;;;2.70;2.60;;;21.10;99.90;;;;;;5078395;28;20613;-71
2022/07/04 00:10:36;;;;;;;4.80;2.33;;;20.90;99.90;;;;;;5077993;28;20598;-71
2022/07/04 00:13:02;;;;;;;2.50;2.30;;;20.90;99.90;;;;;;5078469;28;20711;-71
2022/07/04 00:15:29;;;;;;;7.80;2.60;;;20.90;99.90;;;;;;5060898;28;20625;-70
2022/07/04 00:17:55;;;;;;;6.83;2.33;;;20.90;99.90;;;;;;5058454;28;20656;-70
2022/07/04 00:20:22;;;;;;;2.30;2.10;;;20.90;99.90;;;;;;5076765;28;20642;-71
2022/07/04 00:22:48;;;;;;;4.03;2.00;;;20.80;99.90;;;;;;5075880;28;20657;-69
2022/07/04 00:25:15;;;;;;;4.00;2.67;;;20.80;99.90;;;;;;5076934;28;20610;-71
2022/07/04 00:27:41;;;;;;;4.00;2.40;;;20.90;99.90;;;;;;5078373;28;20625;-70
2022/07/04 00:30:08;;;;;;;3.03;2.37;;;21.00;99.90;;;;;;5078961;28;20685;-69
2022/07/04 00:32:34;;;;;;;2.10;2.00;;;21.00;99.90;;;;;;5078840;28;20989;-69
2022/07/04 00:35:01;;;;;;;2.47;2.27;;;21.10;99.90;;;;;;5078550;28;20626;-70
2022/07/04 00:37:27;;;;;;;2.70;2.57;;;21.10;99.90;;;;;;5078195;28;20621;-70
2022/07/04 00:39:55;;;;;;;2.67;2.50;;;21.10;99.90;;;;;;5078199;28;20965;-70
2022/07/04 00:42:21;;;;;;;2.40;2.20;;;21.10;99.90;;;;;;5078012;28;20756;-70
2022/07/04 00:44:47;;;;;;;10.60;3.03;;;21.10;99.90;;;;;;5078818;28;20613;-70
2022/07/04 00:47:14;;;;;;;3.63;2.30;;;21.20;99.90;;;;;;5078520;28;20613;-70
2022/07/04 00:49:40;;;;;;;3.47;2.17;;;21.10;99.90;;;;;;5077693;28;20693;-70
2022/07/04 00:52:07;;;;;;;10.03;2.33;;;20.80;99.90;;;;;;5058948;28;20606;-70
2022/07/04 00:54:34;;;;;;;2.67;2.47;;;20.60;99.90;;;;;;5058758;28;20606;-70
2022/07/04 00:57:01;;;;;;;3.10;2.40;;;20.60;99.90;;;;;;5078002;28;21157;-70
2022/07/04 00:59:28;;;;;;;8.23;2.47;;;20.70;99.90;;;;;;5077123;28;20650;-70
2022/07/04 01:01:55;;;;;;;4.43;2.60;;;20.70;99.90;;;;;;5074761;28;20578;-70
2022/07/04 01:04:21;;;;;;;2.80;1.97;;;20.70;99.90;;;;;;5073414;28;20665;-70
2022/07/04 01:06:49;;;;;;;2.50;2.40;;;20.80;99.90;;;;;;5073287;28;20606;-70
2022/07/04 01:09:16;;;;;;;3.37;2.37;;;20.80;99.90;;;;;;5072936;28;20618;-69
2022/07/04 01:11:42;;;;;;;2.33;2.23;;;20.90;99.90;;;;;;5073420;28;20618;-69
2022/07/04 01:14:08;;;;;;;2.97;2.33;;;20.90;99.90;;;;;;5072981;28;20621;-70
2022/07/04 01:16:35;;;;;;;4.20;2.30;;;20.90;99.90;;;;;;5072593;28;20621;-70
2022/07/04 01:19:02;;;;;;;3.80;2.00;;;20.80;99.90;;;;;;5073565;28;20628;-70
2022/07/04 01:21:28;;;;;;;4.80;2.80;;;20.80;99.90;;;;;;5055604;28;20606;-70
2022/07/04 01:23:54;;;;;;;3.00;2.10;;;20.80;99.90;;;;;;5072391;28;20666;-70
2022/07/04 01:26:22;;;;;;;2.73;2.53;;;20.70;99.90;;;;;;5073593;28;20603;-70
2022/07/04 01:28:49;;;;;;;2.73;2.20;;;20.70;99.90;;;;;;5073081;28;20602;-70
2022/07/04 01:31:15;;;;;;;3.13;2.40;;;20.70;99.90;;;;;;5075721;28;20660;-70
2022/07/04 01:33:42;;;;;;;2.33;2.23;;;20.60;99.90;;;;;;5076861;28;20625;-70
2022/07/04 01:36:08;;;;;;;2.20;2.00;;;20.70;99.90;;;;;;5059421;28;20610;-69
2022/07/04 01:38:35;;;;;;;2.70;2.10;;;20.70;99.90;;;;;;5059427;28;20659;-69
2022/07/04 01:41:01;;;;;;;3.73;2.10;;;20.60;99.90;;;;;;5076582;28;20621;-69
2022/07/04 01:43:27;;;;;;;3.00;2.60;;;20.50;99.90;;;;;;5059002;28;21222;-69
2022/07/04 01:45:54;;;;;;;2.60;2.40;;;20.50;99.90;;;;;;5076631;28;20671;-71
2022/07/04 01:48:20;;;;;;;2.27;2.13;;;20.50;99.90;;;;;;5077257;28;20683;-70
2022/07/04 01:50:47;;;;;;;3.00;2.40;;;20.50;99.90;;;;;;5076790;28;20621;-70
2022/07/04 01:53:13;;;;;;;2.77;2.37;;;20.40;99.90;;;;;;5076688;28;20610;-70
2022/07/04 01:55:40;;;;;;;5.00;2.43;;;20.40;99.90;;;;;;5076594;28;20606;-70
2022/07/04 01:58:06;;;;;;;5.03;2.73;;;20.40;99.90;;;;;;5076751;28;20621;-70
2022/07/04 02:03:17;;;;;;;2.53;2.43;;;20.30;99.90;;;;;;5076155;28;20641;-70
2022/07/04 02:05:44;;;;;;;2.53;2.33;;;20.10;99.90;;;;;;5058846;28;20636;-69
2022/07/04 02:08:11;;;;;;;2.40;2.20;;;19.70;99.90;;;;;;5058634;28;20628;-70
2022/07/04 02:10:37;;;;;;;1.90;1.80;;;19.50;99.90;;;;;;5075861;28;20613;-69
2022/07/04 02:13:04;;;;;;;3.43;2.23;;;19.50;99.90;;;;;;5076636;28;20624;-71
2022/07/04 02:15:35;;;;;;;3.33;1.77;;;19.30;99.90;;;;;;5076102;28;21023;-70
2022/07/04 02:18:03;;;;;;;28.83;2.60;;;19.20;99.90;;;;;;5076389;28;21170;-70
2022/07/04 02:20:30;;;;;;;2.73;1.83;;;19.20;99.90;;;;;;5058844;28;20663;-70
2022/07/04 02:22:56;;;;;;;2.67;1.93;;;19.30;99.90;;;;;;5076314;28;20650;-70
2022/07/04 02:25:23;;;;;;;2.30;2.10;;;19.30;99.90;;;;;;5076452;28;21144;-70
2022/07/04 02:27:50;;;;;;;4.80;2.33;;;19.30;99.90;;;;;;5076782;28;20611;-70
2022/07/04 02:30:16;;;;;;;3.20;2.57;;;19.30;99.90;;;;;;5076517;28;20610;-69
2022/07/04 02:32:43;;;;;;;3.00;2.07;;;19.40;99.90;;;;;;5076301;28;20622;-69
2022/07/04 02:35:10;;;;;;;4.30;2.23;;;19.40;99.90;;;;;;5076068;28;20964;-70
2022/07/04 02:37:37;;;;;;;2.07;1.50;;;19.30;99.90;;;;;;5076337;28;20622;-70
2022/07/04 02:40:05;;;;;;;6.27;2.30;;;19.20;99.90;;;;;;5076509;28;20639;-70
2022/07/04 02:42:33;;;;;;;3.27;1.83;;;19.20;99.90;;;;;;5075485;28;20953;-70
2022/07/04 02:45:00;;;;;;;3.07;1.90;;;19.20;99.90;;;;;;5075561;28;20621;-69
2022/07/04 02:47:27;;;;;;;3.50;1.90;;;19.30;99.90;;;;;;5075973;28;20611;-69
2022/07/04 02:49:54;;;;;;;5.23;1.80;;;19.30;99.90;;;;;;5075726;28;21168;-69
2022/07/04 02:52:21;;;;;;;1.83;1.73;;;19.30;99.90;;;;;;5075831;28;21010;-70
2022/07/04 02:54:48;;;;;;;2.27;2.07;;;19.30;99.90;;;;;;5075207;28;20620;-70
2022/07/04 02:57:15;;;;;;;2.20;2.00;;;19.40;99.90;;;;;;5075427;28;20618;-70
2022/07/04 02:59:42;;;;;;;4.33;2.10;;;19.30;99.90;;;;;;5075518;28;20786;-70
2022/07/04 03:02:08;;;;;;;1.80;1.70;;;19.30;99.90;;;;;;5075902;28;20633;-70
2022/07/04 03:04:35;;;;;;;2.03;1.93;;;19.40;99.90;;;;;;5075322;28;20662;-70
2022/07/04 03:07:01;;;;;;;2.27;1.60;;;19.40;99.90;;;;;;5075284;28;20636;-69
2022/07/04 03:09:28;;;;;;;3.37;1.60;;;19.40;99.90;;;;;;5075546;28;20651;-71
2022/07/04 03:11:54;;;;;;;1.83;1.73;;;19.30;99.90;;;;;;5074501;28;20618;-69
2022/07/04 03:14:21;;;;;;;2.40;2.20;;;19.30;99.90;;;;;;5075249;28;21204;-70
2022/07/04 03:16:48;;;;;;;2.30;2.00;;;19.30;99.90;;;;;;5074946;28;20618;-70
2022/07/04 03:19:17;;;;;;;1.80;1.70;;;19.30;99.90;;;;;;5075319;28;20621;-73
2022/07/04 03:21:43;;;;;;;2.80;2.10;;;19.30;99.90;;;;;;5056855;28;20676;-69
2022/07/04 03:24:10;;;;;;;1.67;1.57;;;19.30;99.90;;;;;;5076556;28;21224;-70
2022/07/04 03:26:37;;;;;;;2.50;2.10;;;19.20;99.90;;;;;;5076435;28;20613;-72
2022/07/04 03:29:03;;;;;;;1.93;1.83;;;19.00;99.90;;;;;;5058615;28;20622;-70
2022/07/04 03:31:30;;;;;;;3.10;2.60;;;18.80;99.90;;;;;;5076301;28;20619;-69
2022/07/04 03:33:56;;;;;;;2.10;2.00;;;18.80;99.90;;;;;;5076157;28;20610;-69
2022/07/04 03:36:23;;;;;;;1.73;1.63;;;18.80;99.90;;;;;;5057966;28;20631;-68
2022/07/04 03:38:49;;;;;;;4.80;1.63;;;18.80;99.90;;;;;;5075179;28;21172;-69
2022/07/04 03:41:16;;;;;;;4.43;2.50;;;18.50;99.90;;;;;;5075716;28;20617;-69
2022/07/04 03:43:43;;;;;;;4.90;2.60;;;18.60;99.90;;;;;;5075921;28;21052;-71
2022/07/04 03:46:09;;;;;;;4.53;1.67;;;18.80;99.90;;;;;;5075628;28;20603;-69
2022/07/04 03:48:36;;;;;;;2.20;2.10;;;18.90;99.90;;;;;;5075655;28;20606;-70
2022/07/04 03:51:02;;;;;;;3.53;2.60;;;19.00;99.90;;;;;;5075184;28;20622;-70
2022/07/04 03:53:29;;;;;;;2.50;1.80;;;19.00;99.90;;;;;;5074291;28;20621;-70
2022/07/04 03:55:55;;;;;;;2.53;1.50;;;19.00;99.90;;;;;;5075817;28;20611;-69
2022/07/04 03:58:21;;;;;;;4.63;1.90;;;19.00;99.90;;;;;;5074835;28;20619;-70
2022/07/04 04:00:48;;;;;;;3.93;2.00;;;19.00;99.90;;;;;;5075012;28;20658;-70
2022/07/04 04:06:00;;;;;;;4.63;1.67;;;18.90;99.90;;;;;;5075470;28;20562;-71
2022/07/04 04:08:26;;;;;;;6.00;1.93;;;19.00;99.90;;;;;;5075060;28;20615;-70
2022/07/04 04:10:53;;;;;;;4.97;1.77;;;19.00;99.90;;;;;;5057277;28;20967;-70
2022/07/04 04:13:19;;;;;;;2.70;1.97;;;19.10;99.90;;;;;;5074547;28;20618;-70
2022/07/04 04:15:45;;;;;;;3.20;1.90;;;19.00;99.90;;;;;;5073954;28;20974;-70
2022/07/04 04:18:12;;;;;;;2.20;2.10;;;18.80;99.90;;;;;;5074407;28;20626;-71
2022/07/04 04:20:38;;;;;;;1.87;1.77;;;18.70;99.90;;;;;;5074694;28;20613;-71
2022/07/04 04:23:05;;;;;;;2.00;1.80;;;18.70;99.90;;;;;;5073851;28;20653;-71
2022/07/04 04:25:31;;;;;;;2.73;1.80;;;18.70;99.90;;;;;;5073899;28;21082;-71
2022/07/04 04:27:58;;;;;;;2.07;1.97;;;18.70;99.90;;;;;;5073915;28;20620;-71
2022/07/04 04:30:24;;;;;;;3.30;2.20;;;18.70;99.90;;;;;;5073830;28;20610;-71
2022/07/04 04:32:51;;;;;;;3.10;2.33;;;18.80;99.90;;;;;;5074149;28;20691;-71
2022/07/04 04:35:19;;;;;;;3.00;2.80;;;18.80;99.90;;;;;;5074115;28;21009;-71
2022/07/04 04:37:45;;;;;;;7.73;1.93;;;18.90;99.90;;;;;;5073811;28;20622;-71
2022/07/04 04:40:12;;;;;;;2.23;1.93;;;18.90;99.90;;;;;;5074548;28;20656;-69
2022/07/04 04:42:38;;;;;;;3.47;2.20;;;19.00;99.90;;;;;;5073430;28;20618;-70
2022/07/04 04:45:05;;;;;;;2.93;2.00;;;19.00;99.90;;;;;;5073463;28;20650;-70
2022/07/04 04:47:32;;;;;;;2.03;1.90;;;19.10;99.90;;;;;;5055903;28;20970;-71
2022/07/04 04:49:58;;;;;;;3.23;2.07;;;19.20;99.90;;;;;;5074801;28;20602;-70
2022/07/04 04:52:24;;;;;;;2.90;2.30;;;19.10;99.90;;;;;;5073997;28;20628;-71
2022/07/04 04:54:51;;;;;;;3.30;2.60;;;19.20;99.90;;;;;;5073955;28;21002;-69
2022/07/04 04:57:17;;;;;;;4.43;2.30;;;19.20;99.90;;;;;;5073588;28;20625;-70
2022/07/04 04:59:44;;;;;;;3.17;3.03;;;19.30;99.90;;;;;;5073304;28;21238;-70
2022/07/04 05:02:10;;;;;;;2.73;2.53;;;19.30;99.90;;;;;;5073456;28;20607;-71
2022/07/04 05:04:37;;;;;;;5.23;2.17;;;19.40;99.90;;;;;;5073347;28;20995;-70
2022/07/04 05:07:03;;;;;;;2.30;1.73;;;19.50;99.90;;;;;;5073239;28;20610;-70
2022/07/04 05:09:30;;;;;;;4.93;2.20;;;19.70;99.90;;;;;;5073863;28;20606;-69
2022/07/04 05:11:56;;;;;;;4.77;2.27;;;19.80;99.90;;;;;;5074056;28;20951;-70
2022/07/04 05:14:23;;;;;;;2.20;2.00;;;19.80;99.90;;;;;;5073581;28;21157;-70
2022/07/04 05:16:49;;;;;;;2.93;2.10;;;19.90;99.90;;;;;;5055229;28;20622;-70
2022/07/04 05:19:16;;;;;;;2.70;1.80;;;19.90;99.90;;;;;;5038525;28;20645;-70
2022/07/04 05:21:42;;;;;;;2.40;2.30;;;20.00;99.90;;;;;;5055251;28;20756;-70
2022/07/04 05:24:11;;;;;;;3.13;2.47;;;20.00;99.90;;;;;;5073708;28;20653;-70
2022/07/04 05:26:37;;;;;;;3.23;2.30;;;20.10;99.90;;;;;;5072963;28;20623;-70
2022/07/04 05:29:04;;;;;;;5.03;2.90;;;20.30;99.90;;;;;;5073568;28;20610;-71
2022/07/04 05:31:31;;;;;;;2.60;2.40;;;20.40;99.90;;;;;;5055370;28;20615;-69
2022/07/04 05:33:58;;;;;;;4.63;2.77;;;20.60;99.90;;;;;;5073214;28;20621;-70
2022/07/04 05:36:26;;;;;;;2.67;2.50;;;20.60;99.90;;;;;;5073495;28;20629;-70
2022/07/04 05:38:52;;;;;;;2.37;2.27;;;20.80;99.90;;;;;;5073413;28;20618;-69
2022/07/04 05:41:19;;;;;;;9.60;2.57;;;20.90;99.90;;;;;;5038555;28;20621;-70
2022/07/04 05:43:45;;;;;;;3.20;2.63;;;20.90;99.90;;;;;;5072924;28;20650;-70
2022/07/04 05:46:11;;;;;;;4.63;2.90;;;20.90;99.90;;;;;;5073173;28;20597;-69
2022/07/04 05:48:38;;;;;;;2.70;2.50;;;21.00;99.90;;;;;;5072858;28;20614;-69
2022/07/04 05:51:04;;;;;;;5.70;2.80;;;21.00;99.90;;;;;;5072985;28;20617;-75
2022/07/04 05:53:31;;;;;;;3.77;3.50;;;21.00;99.90;;;;;;5072812;28;21176;-75
2022/07/04 05:55:58;;;;;;;5.17;4.23;;;21.00;99.90;;;;;;5074244;28;20621;-72
2022/07/04 05:58:24;;;;;;;3.60;3.30;;;21.20;99.90;;;;;;5073252;28;20942;-74
2022/07/04 06:00:51;;;;;;;3.20;3.00;;;21.30;99.90;;;;;;5072868;28;20662;-75
2022/07/04 06:03:18;;;;;;;3.93;3.70;;;21.20;99.90;;;;;;5073269;28;20618;-75
2022/07/04 06:05:44;;;;;;;3.30;3.10;;;21.10;99.90;;;;;;5072768;28;20618;-75
2022/07/04 06:08:11;;;;;;;3.57;3.37;;;21.00;99.90;;;;;;5055632;28;20606;-76
2022/07/04 06:10:37;;;;;;;4.00;3.80;;;21.00;99.90;;;;;;5074129;28;20602;-75
2022/07/04 06:13:05;;;;;;;3.83;3.43;;;21.00;99.90;;;;;;5056718;28;20950;-76
2022/07/04 06:15:32;;;;;;;4.17;3.87;;;21.10;99.90;;;;;;5055965;28;20610;-75
2022/07/04 06:17:59;;;;;;;4.37;4.07;;;21.00;99.90;;;;;;5076437;28;20679;-75
2022/07/04 06:20:25;;;;;;;3.80;3.47;;;21.00;99.90;;;;;;5076581;28;20618;-75
2022/07/04 06:22:52;;;;;;;3.77;3.57;;;21.00;99.90;;;;;;5077692;28;20622;-77
2022/07/04 06:25:20;;;;;;;4.00;3.70;;;21.00;99.90;;;;;;5076591;28;21239;-75
2022/07/04 06:27:48;;;;;;;4.43;4.03;;;21.20;99.90;;;;;;5058643;28;20621;-74
2022/07/04 06:30:16;;;;;;;4.00;3.67;;;21.40;99.90;;;;;;5076503;28;20625;-74
2022/07/04 06:32:51;;;;;;;3.67;3.37;;;21.30;99.90;;;;;;5076771;28;21177;-74
2022/07/04 06:38:05;;;;;;;5.10;3.50;;;21.30;99.90;;;;;;5076456;28;20594;-73
2022/07/04 06:40:31;;;;;;;4.37;4.03;;;21.20;99.90;;;;;;5058465;28;20622;-74
2022/07/04 06:42:58;;;;;;;3.60;3.40;;;21.30;99.90;;;;;;5058576;28;20617;-73
2022/07/04 06:45:25;;;;;;;5.27;3.30;;;21.40;99.90;;;;;;5057807;28;21024;-74
2022/07/04 06:47:51;;;;;;;3.67;3.37;;;21.30;99.90;;;;;;5076523;28;20606;-73
2022/07/04 06:50:18;;;;;;;8.13;4.17;;;21.50;99.90;;;;;;5075911;28;20614;-74
2022/07/04 06:52:44;;;;;;;5.37;3.97;;;21.70;99.90;;;;;;5058061;28;20967;-75
2022/07/04 06:55:11;;;;;;;4.97;4.50;;;21.80;99.90;;;;;;5077114;28;20614;-77
2022/07/04 06:57:38;;;;;;;3.97;3.73;;;21.80;99.90;;;;;;5077346;28;20610;-77
2022/07/04 07:00:09;;;;;;;6.03;3.60;;;21.80;99.90;;;;;;5076082;28;20669;-77
2022/07/04 07:02:37;;;;;;;5.13;4.63;;;21.90;99.90;;;;;;5077071;28;21202;-76
2022/07/04 07:05:05;;;;;;;4.10;3.87;;;21.60;99.90;;;;;;5060432;28;20657;-77
2022/07/04 07:07:31;;;;;;;4.00;3.57;;;21.60;99.90;;;;;;5077554;28;20610;-77
2022/07/04 07:09:58;;;;;;;5.47;4.00;;;22.00;99.90;;;;;;5077992;28;20656;-76
2022/07/04 07:12:24;;;;;;;4.43;4.03;;;22.20;99.90;;;;;;5085206;28;20621;-77
2022/07/04 07:14:51;;;;;;;4.03;3.73;;;22.30;99.90;;;;;;5079042;28;21175;-78
2022/07/04 07:17:18;;;;;;;11.97;4.60;;;22.40;99.90;;;;;;5077050;28;20716;-76
2022/07/04 07:19:45;;;;;;;6.60;4.00;;;22.40;99.90;;;;;;5076119;28;20618;-77
2022/07/04 07:22:13;;;;;;;4.73;4.43;;;22.50;99.90;;;;;;5076830;28;20705;-77
2022/07/04 07:24:40;;;;;;;5.90;4.83;;;22.30;99.90;;;;;;5080861;28;20650;-78
2022/07/04 07:27:08;;;;;;;5.80;4.50;;;22.40;99.90;;;;;;5080672;28;21125;-78
2022/07/04 07:29:35;;;;;;;4.57;4.27;;;22.20;99.90;;;;;;5079128;28;20679;-78
2022/07/04 07:32:02;;;;;;;5.30;4.47;;;22.30;99.90;;;;;;5080391;28;20709;-78
2022/07/04 07:34:28;;;;;;;4.80;4.50;;;22.40;99.90;;;;;;5078068;28;20633;-77
2022/07/04 07:36:55;;;;;;;4.83;4.50;;;22.40;99.90;;;;;;5061064;28;20619;-78
2022/07/04 07:39:21;;;;;;;4.90;4.40;;;22.30;99.90;;;;;;5078452;28;21204;-77
2022/07/04 07:41:48;;;;;;;4.67;4.37;;;22.40;99.90;;;;;;5077408;28;20617;-78
2022/07/04 07:44:15;;;;;;;5.00;4.60;;;22.70;99.90;;;;;;5077017;28;20734;-78
2022/07/04 07:46:41;;;;;;;4.70;4.40;;;23.00;99.90;;;;;;5077378;28;21161;-77
2022/07/04 07:49:08;;;;;;;6.03;5.10;;;23.10;99.90;;;;;;5079642;28;20610;-78
2022/07/04 07:51:34;;;;;;;5.57;4.90;;;23.10;99.90;;;;;;5044355;28;20625;-79
2022/07/04 07:54:01;;;;;;;5.20;4.70;;;23.20;99.90;;;;;;5059816;28;20626;-77
2022/07/04 07:56:27;;;;;;;5.13;4.80;;;23.30;99.90;;;;;;5076816;28;20617;-76
2022/07/04 07:58:54;;;;;;;5.30;4.90;;;23.00;99.90;;;;;;5074399;28;20711;-76
2022/07/04 08:01:20;;;;;;;4.77;4.47;;;23.10;99.90;;;;;;5074780;28;21220;-77
2022/07/04 08:06:33;;;;;;;5.00;4.70;;;23.00;99.90;;;;;;5077602;28;21112;-78
2022/07/04 08:09:00;;;;;;;6.67;5.50;;;23.30;99.90;;;;;;5081615;28;20756;-77
2022/07/04 08:11:26;;;;;;;4.90;4.60;;;23.50;99.90;;;;;;5061165;28;20623;-78
2022/07/04 08:13:53;;;;;;;5.10;4.80;;;23.10;99.90;;;;;;5079165;28;20615;-76
2022/07/04 08:16:20;;;;;;;8.40;5.20;;;23.10;99.90;;;;;;5075832;28;20961;-73
2022/07/04 08:18:46;;;;;;;5.10;4.80;;;23.30;99.90;;;;;;5075195;28;20625;-79
2022/07/04 08:21:16;;;;;;;5.40;5.00;;;23.50;99.90;;;;;;5075484;28;20623;-77
2022/07/04 08:23:42;;;;;;;7.10;4.90;;;23.80;99.90;;;;;;5074869;28;20626;-77
2022/07/04 08:26:09;;;;;;;5.73;5.10;;;23.90;99.90;;;;;;5074768;28;20614;-76
2022/07/04 08:28:35;;;;;;;5.13;4.73;;;23.80;99.90;;;;;;5075760;28;21032;-77
2022/07/04 08:31:03;;;;;;;10.53;5.30;;;24.10;99.90;;;;;;5077690;28;20652;-78
2022/07/04 08:33:30;;;;;;;5.73;5.30;;;24.00;99.90;;;;;;5077029;28;20615;-78
2022/07/04 08:35:58;;;;;;;5.03;4.73;;;23.70;99.90;;;;;;5078036;28;20617;-78
2022/07/04 08:38:25;;;;;;;5.87;5.57;;;23.90;99.90;;;;;;5060618;28;20619;-77
2022/07/04 08:40:57;;;;;;;6.07;5.57;;;23.80;99.90;;;;;;5076790;28;21195;-76
2022/07/04 08:43:25;;;;;;;8.20;5.40;;;23.50;99.90;;;;;;5074202;28;20622;-76
2022/07/04 08:45:54;;;;;;;5.17;4.73;;;23.70;99.90;;;;;;5073178;28;20669;-76
2022/07/04 08:48:25;;;;;;;6.27;5.90;;;23.90;99.90;;;;;;5075817;28;21091;-78
2022/07/04 08:50:56;;;;;;;5.90;5.40;;;24.00;99.90;;;;;;5074962;28;20587;-75
2022/07/04 08:53:30;;;;;;;8.00;5.70;;;24.10;99.90;;;;;;5056032;28;20618;-75
2022/07/04 08:58:43;;;;;;;6.23;5.80;;;24.50;99.90;;;;;;5075002;28;20589;-72
2022/07/04 09:01:14;;;;;;;5.50;5.30;;;24.40;99.90;;;;;;5073597;28;20650;-72
2022/07/04 09:03:42;;;;;;;5.40;5.30;;;23.70;99.90;;;;;;5073570;28;20578;-71
2022/07/04 09:06:12;;;;;;;5.73;5.43;;;23.60;99.90;;;;;;5073536;28;20614;-72
2022/07/04 09:08:39;;;;;;;5.97;5.57;;;24.10;99.90;;;;;;5055767;28;21145;-73
2022/07/04 09:11:06;;;;;;;5.60;5.30;;;24.50;99.90;;;;;;5073425;28;20625;-73
2022/07/04 09:13:33;;;;;;;6.83;5.17;;;24.90;99.90;;;;;;5075068;28;20619;-73
2022/07/04 09:16:01;;;;;;;5.90;5.60;;;24.90;99.90;;;;;;5074034;28;20622;-72
2022/07/04 09:18:33;;;;;;;5.60;5.30;;;24.90;99.90;;;;;;5073528;28;20633;-72
2022/07/04 09:21:08;;;;;;;5.60;5.10;;;24.80;99.90;;;;;;5073549;28;20606;-72
2022/07/04 09:23:40;;;;;;;7.03;6.07;;;24.50;99.90;;;;;;5073350;28;21084;-72
2022/07/04 09:26:13;;;;;;;8.57;6.20;;;24.70;99.90;;;;;;5072813;28;20667;-72
2022/07/04 09:28:43;;;;;;;5.77;5.47;;;24.80;99.90;;;;;;5072870;28;21145;-72
2022/07/04 09:31:17;;;;;;;6.57;5.97;;;25.00;99.90;;;;;;5073916;28;20636;-73
2022/07/04 09:33:45;;;;;;;5.90;5.60;;;24.70;99.90;;;;;;5073692;28;20617;-72
2022/07/04 09:36:14;;;;;;;6.50;6.10;;;25.10;99.90;;;;;;5073282;28;20626;-73
2022/07/04 09:38:40;;;;;;;6.03;5.73;;;25.20;99.90;;;;;;5074419;28;20609;-73
2022/07/04 09:41:25;;;;;;;6.40;6.00;;;25.10;99.90;;;;;;5074141;28;20618;-73
2022/07/04 09:44:00;;;;;;;6.33;6.03;;;25.00;99.90;;;;;;5075036;28;20570;-73
2022/07/04 09:46:27;;;;;;;5.90;5.60;;;25.40;99.90;;;;;;5074681;28;21168;-73
2022/07/04 09:48:53;;;;;;;6.60;6.20;;;25.30;99.90;;;;;;5072644;28;20614;-72
2022/07/04 09:51:35;;;;;;;5.90;5.60;;;25.10;99.90;;;;;;5075174;28;20603;-73
2022/07/04 09:54:16;;;;;;;5.80;5.40;;;25.10;99.90;;;;;;5078051;28;20605;-73
2022/07/04 09:56:45;;;;;;;9.00;6.13;;;25.30;99.90;;;;;;5077411;28;20633;-73
2022/07/04 09:59:12;;;;;;;5.67;4.90;;;25.80;99.90;;;;;;5076898;28;21054;-73
2022/07/04 10:01:42;;;;;;;5.17;4.80;;;25.90;99.90;;;;;;5078757;28;20567;-73
2022/07/04 10:04:09;;;;;;;5.80;5.50;;;25.90;99.90;;;;;;5077877;28;20973;-73
2022/07/04 10:06:39;;;;;;;5.00;4.80;;;26.10;99.90;;;;;;5078307;28;20613;-74
2022/07/04 10:09:16;;;;;;;7.23;5.90;;;26.00;99.90;;;;;;5079330;28;20645;-73
2022/07/04 10:11:46;;;;;;;5.47;5.17;;;25.90;99.90;;;;;;5078138;28;20988;-73
2022/07/04 10:14:14;;;;;;;6.37;5.83;;;26.30;99.90;;;;;;5060632;28;20621;-72
2022/07/04 10:16:41;;;;;;;5.53;5.33;;;25.80;99.90;;;;;;5059746;28;20632;-74
2022/07/04 10:19:09;;;;;;;6.20;5.63;;;25.00;99.90;;;;;;5077978;28;20613;-73
2022/07/04 10:21:36;;;;;;;5.10;4.90;;;25.10;99.90;;;;;;5078225;28;20606;-72
2022/07/04 10:24:03;;;;;;;6.17;5.87;;;25.60;99.90;;;;;;5060899;28;20687;-72
2022/07/04 10:26:30;;;;;;;6.30;5.90;;;25.40;99.90;;;;;;5078620;28;20606;-73
2022/07/04 10:28:57;;;;;;;6.40;6.07;;;25.70;99.90;;;;;;5077285;28;20633;-74
2022/07/04 10:31:27;;;;;;;5.50;5.27;;;26.10;99.90;;;;;;5058891;28;20629;-75
2022/07/04 10:33:56;;;;;;;6.20;5.60;;;25.30;99.90;;;;;;5077079;28;20617;-74
2022/07/04 10:36:28;;;;;;;6.03;5.80;;;26.10;99.90;;;;;;5043120;28;20616;-74
2022/07/04 10:39:00;;;;;;;5.13;5.00;;;26.50;99.90;;;;;;5076452;28;20641;-74
2022/07/04 10:41:29;;;;;;;5.93;5.63;;;26.20;99.90;;;;;;5076653;28;20636;-74
2022/07/04 10:43:59;;;;;;;8.53;5.30;;;26.20;99.90;;;;;;5076668;28;20968;-74
2022/07/04 10:46:46;;;;;;;4.77;4.57;;;26.50;99.90;;;;;;5058691;28;20593;-74
2022/07/04 10:49:15;;;;;;;5.43;5.13;;;26.40;99.90;;;;;;5075735;28;20712;-74
2022/07/04 10:51:47;;;;;;;5.37;5.17;;;25.80;99.90;;;;;;5058077;28;20621;-74
2022/07/04 10:54:32;;;;;;;6.33;5.87;;;26.20;99.90;;;;;;5076263;28;20610;-74
2022/07/04 10:57:11;;;;;;;6.37;5.90;;;26.70;99.90;;;;;;5058379;28;20589;-74
2022/07/04 10:59:38;;;;;;;6.10;5.70;;;26.30;99.90;;;;;;5075666;28;20646;-74
2022/07/04 11:02:08;;;;;;;6.57;6.27;;;26.10;99.90;;;;;;5075517;28;20587;-74
2022/07/04 11:04:48;;;;;;;7.57;7.27;;;25.70;99.90;;;;;;5074984;28;20661;-74
2022/07/04 11:07:16;;;;;;;6.07;5.63;;;26.10;99.90;;;;;;5075987;28;20606;-74
2022/07/04 11:09:43;;;;;;;5.13;4.93;;;26.40;99.90;;;;;;5057840;28;21017;-74
2022/07/04 11:12:10;;;;;;;5.47;5.17;;;26.60;99.90;;;;;;5057975;28;20622;-75
2022/07/04 11:14:40;;;;;;;5.03;4.80;;;26.20;99.90;;;;;;5076327;28;20660;-74
2022/07/04 11:17:07;;;;;;;5.00;4.80;;;26.40;99.90;;;;;;5075799;28;20610;-74
2022/07/04 11:19:35;;;;;;;5.17;4.90;;;26.60;99.90;;;;;;5075755;28;20637;-73
2022/07/04 11:22:04;;;;;;;6.27;5.90;;;26.60;99.90;;;;;;5075086;28;20714;-73
2022/07/04 11:24:31;;;;;;;6.93;6.30;;;27.00;99.90;;;;;;5057301;28;20670;-73
2022/07/04 11:26:58;;;;;;;6.00;5.60;;;27.60;99.90;;;;;;5057206;28;20614;-74
2022/07/04 11:29:25;;;;;;;6.80;6.20;;;27.70;99.90;;;;;;5074955;28;20983;-74
2022/07/04 11:31:53;;;;;;;6.33;6.03;;;28.80;99.90;;;;;;5074334;28;20616;-74
2022/07/04 11:34:20;;;;;;;6.13;5.83;;;29.10;99.90;;;;;;5075356;28;20633;-73
2022/07/04 11:36:49;;;;;;;7.47;5.83;;;28.60;99.90;;;;;;5074649;28;20595;-70
2022/07/04 11:39:21;;;;;;;6.23;5.90;;;29.10;99.90;;;;;;5074460;28;20615;-70
2022/07/04 11:47:31;;;;;;;6.47;6.10;;;29.70;99.90;;;;;;5074370;28;20662;-70
2022/07/04 11:49:59;;;;;;;6.50;6.20;;;30.50;99.90;;;;;;5074643;28;21124;-75
2022/07/04 11:52:30;;;;;;;6.90;6.60;;;30.80;99.90;;;;;;5056921;28;20621;-75
2022/07/04 11:54:57;;;;;;;6.20;6.00;;;31.30;99.90;;;;;;5056629;28;20664;-77
2022/07/04 11:57:27;;;;;;;6.63;6.20;;;30.60;99.90;;;;;;5074080;28;20633;-76
2022/07/04 12:00:00;;;;;;;6.80;6.30;;;29.30;99.90;;;;;;5056111;28;20662;-76
2022/07/04 12:02:29;;;;;;;6.80;6.40;;;29.70;99.90;;;;;;5056812;28;20636;-76
2022/07/04 12:04:57;;;;;;;7.07;6.57;;;28.70;99.90;;;;;;5075514;28;20642;-76
2022/07/04 12:07:26;;;;;;;7.10;6.70;;;29.60;99.90;;;;;;5056243;28;20637;-75
2022/07/04 12:09:53;;;;;;;7.60;7.20;;;29.60;99.90;;;;;;5056409;28;20622;-76
2022/07/04 12:12:21;;;;;;;8.03;6.90;;;29.30;99.90;;;;;;5074167;28;21012;-76
2022/07/04 12:15:07;;;;;;;6.90;6.70;;;30.00;99.90;;;;;;5073721;28;21114;-78
2022/07/04 12:17:36;;;;;;;7.20;6.80;;;29.50;99.90;;;;;;5057167;28;20570;-76
2022/07/04 12:20:12;;;;;;;7.27;6.97;;;30.00;99.90;;;;;;5056200;28;21163;-77
2022/07/04 12:22:41;;;;;;;7.40;7.00;;;30.20;99.90;;;;;;5056325;28;20598;-76
2022/07/04 12:25:20;;;;;;;7.50;7.20;;;29.10;99.90;;;;;;5056088;28;21232;-76
2022/07/04 12:28:02;;;;;;;7.70;7.40;;;29.20;99.90;;;;;;5058212;28;20574;-75
2022/07/04 12:30:47;;;;;;;7.93;7.50;;;29.50;99.90;;;;;;5056333;28;20682;-76
2022/07/04 12:33:17;;;;;;;7.47;7.07;;;29.60;99.90;;;;;;5074231;28;20578;-76
2022/07/04 12:36:00;;;;;;;7.67;7.13;;;31.00;99.90;;;;;;5056457;28;20609;-76
2022/07/04 12:38:27;;;;;;;6.70;6.50;;;31.40;99.90;;;;;;5073755;28;20575;-74
2022/07/04 12:40:59;;;;;;;7.00;6.70;;;31.50;99.90;;;;;;5073624;28;20606;-76
2022/07/04 12:43:41;;;;;;;7.60;7.20;;;30.30;99.90;;;;;;5073910;28;20573;-74
2022/07/04 12:46:24;;;;;;;7.20;6.80;;;29.80;99.90;;;;;;5073586;28;20662;-75
2022/07/04 12:48:51;;;;;;;7.90;6.80;;;29.20;99.90;;;;;;5073756;28;20606;-76
2022/07/04 12:51:26;;;;;;;7.20;6.70;;;30.20;99.90;;;;;;5055162;28;20949;-74
2022/07/04 12:53:54;;;;;;;7.33;7.03;;;30.80;99.90;;;;;;5056565;28;20562;-73
2022/07/04 12:56:38;;;;;;;6.70;6.30;;;30.70;99.90;;;;;;5073610;28;20609;-73
2022/07/04 12:59:12;;;;;;;7.03;6.67;;;31.20;99.90;;;;;;5055192;28;20638;-71
2022/07/04 13:01:40;;;;;;;7.87;7.17;;;30.50;99.90;;;;;;5073361;28;20581;-73
2022/07/04 13:04:07;;;;;;;7.47;6.63;;;30.70;99.90;;;;;;5073303;28;20608;-73
2022/07/04 13:06:34;;;;;;;6.40;6.13;;;31.10;99.90;;;;;;5055328;28;20658;-73
2022/07/04 13:09:02;;;;;;;6.73;6.43;;;30.00;99.90;;;;;;5073330;28;20609;-73